<?xml version="1.0" encoding="UTF-8" standalone="no" ?>
<gpx xmlns="http://www.topografix.com/GPX/1/1" xmlns:xsi="http://www.w3.org/2001/XMLSchema-instance" xsi:schemaLocation="http://www.topografix.com/GPX/1/1 http://www.topografix.com/GPX/1/1/gpx.xsd" version="1.1" creator="VisuGPX - https://www.visugpx.com">
  <metadata>
    <name>Tour Lac Saint-Point</name>
  </metadata>
  <wpt lat="46.81449" lon="6.31809">
    <ele>853.5</ele>
    <name><![CDATA[Bifurcation]]></name>
    <desc><![CDATA[Prendre à gauche, si balade en sens anti-horaire]]></desc>
    <type><![CDATA[danger]]></type>
  </wpt>
  <trk>
    <name><![CDATA[Tour Lac Saint-Point_1]]></name>
    <extensions>
      <line xmlns="http://www.topografix.com/GPX/gpx_style/0/2">
        <color>0000FF</color>
        <width>4</width>
      </line>
    </extensions>
    <trkseg>
      <trkpt lat="46.83206" lon="6.33944">
        <ele>864.3</ele>
        <time>2021-09-18T08:05:00.000Z</time>
      </trkpt>
      <trkpt lat="46.83206" lon="6.33944">
        <ele>864.3</ele>
        <time>2021-09-18T08:05:00.000Z</time>
      </trkpt>
      <trkpt lat="46.83237" lon="6.33976">
        <ele>863.1</ele>
        <time>2021-09-18T08:05:09.737Z</time>
      </trkpt>
      <trkpt lat="46.83248" lon="6.33979">
        <ele>861.2</ele>
        <time>2021-09-18T08:05:12.039Z</time>
      </trkpt>
      <trkpt lat="46.83266" lon="6.33983">
        <ele>860</ele>
        <time>2021-09-18T08:05:15.489Z</time>
      </trkpt>
      <trkpt lat="46.83282" lon="6.33983">
        <ele>858.5</ele>
        <time>2021-09-18T08:05:18.780Z</time>
      </trkpt>
      <trkpt lat="46.83322" lon="6.33973">
        <ele>853.7</ele>
        <time>2021-09-18T08:05:27.127Z</time>
      </trkpt>
      <trkpt lat="46.83338" lon="6.33972">
        <ele>852.6</ele>
        <time>2021-09-18T08:05:30.421Z</time>
      </trkpt>
      <trkpt lat="46.8335" lon="6.33977">
        <ele>852.7</ele>
        <time>2021-09-18T08:05:41.926Z</time>
      </trkpt>
      <trkpt lat="46.83362" lon="6.33985">
        <ele>853.2</ele>
        <time>2021-09-18T08:05:59.189Z</time>
      </trkpt>
      <trkpt lat="46.83387" lon="6.34003">
        <ele>854.1</ele>
        <time>2021-09-18T08:06:33.000Z</time>
      </trkpt>
      <trkpt lat="46.83436" lon="6.34005">
        <ele>854.3</ele>
        <time>2021-09-18T08:07:16.507Z</time>
      </trkpt>
      <trkpt lat="46.83471" lon="6.34009">
        <ele>856.3</ele>
        <time>2021-09-18T08:08:11.462Z</time>
      </trkpt>
      <trkpt lat="46.83484" lon="6.34011">
        <ele>857.1</ele>
        <time>2021-09-18T08:08:32.537Z</time>
      </trkpt>
      <trkpt lat="46.83531" lon="6.33972">
        <ele>853.5</ele>
        <time>2021-09-18T08:08:42.724Z</time>
      </trkpt>
      <trkpt lat="46.83557" lon="6.33966">
        <ele>852.5</ele>
        <time>2021-09-18T08:08:49.061Z</time>
      </trkpt>
      <trkpt lat="46.83591" lon="6.33955">
        <ele>851.1</ele>
        <time>2021-09-18T08:08:57.269Z</time>
      </trkpt>
      <trkpt lat="46.83618" lon="6.33943">
        <ele>850</ele>
        <time>2021-09-18T08:09:03.999Z</time>
      </trkpt>
      <trkpt lat="46.83676" lon="6.33938">
        <ele>849.8</ele>
        <time>2021-09-18T08:09:51.151Z</time>
      </trkpt>
      <trkpt lat="46.83728" lon="6.33928">
        <ele>852.3</ele>
        <time>2021-09-18T08:11:08.324Z</time>
      </trkpt>
      <trkpt lat="46.83757" lon="6.33899">
        <ele>852.5</ele>
        <time>2021-09-18T08:11:39.994Z</time>
      </trkpt>
      <trkpt lat="46.83793" lon="6.33852">
        <ele>851.8</ele>
        <time>2021-09-18T08:11:55.036Z</time>
      </trkpt>
      <trkpt lat="46.83808" lon="6.33857">
        <ele>853.1</ele>
        <time>2021-09-18T08:12:24.732Z</time>
      </trkpt>
      <trkpt lat="46.83841" lon="6.33805">
        <ele>853.6</ele>
        <time>2021-09-18T08:13:10.507Z</time>
      </trkpt>
      <trkpt lat="46.83838" lon="6.33783">
        <ele>852.9</ele>
        <time>2021-09-18T08:13:13.948Z</time>
      </trkpt>
      <trkpt lat="46.8385" lon="6.33743">
        <ele>853</ele>
        <time>2021-09-18T08:13:40.282Z</time>
      </trkpt>
      <trkpt lat="46.83897" lon="6.33669">
        <ele>851.2</ele>
        <time>2021-09-18T08:13:59.084Z</time>
      </trkpt>
      <trkpt lat="46.83913" lon="6.33648">
        <ele>851.4</ele>
        <time>2021-09-18T08:14:19.166Z</time>
      </trkpt>
      <trkpt lat="46.83937" lon="6.33634">
        <ele>853.6</ele>
        <time>2021-09-18T08:15:09.315Z</time>
      </trkpt>
      <trkpt lat="46.83964" lon="6.33589">
        <ele>854.3</ele>
        <time>2021-09-18T08:15:50.793Z</time>
      </trkpt>
      <trkpt lat="46.84009" lon="6.33525">
        <ele>854.7</ele>
        <time>2021-09-18T08:16:47.756Z</time>
      </trkpt>
      <trkpt lat="46.84029" lon="6.33502">
        <ele>854.2</ele>
        <time>2021-09-18T08:16:55.205Z</time>
      </trkpt>
      <trkpt lat="46.84042" lon="6.335">
        <ele>854.5</ele>
        <time>2021-09-18T08:17:09.346Z</time>
      </trkpt>
      <trkpt lat="46.84047" lon="6.33492">
        <ele>854.4</ele>
        <time>2021-09-18T08:17:11.686Z</time>
      </trkpt>
      <trkpt lat="46.84038" lon="6.33408">
        <ele>852.2</ele>
        <time>2021-09-18T08:17:25.710Z</time>
      </trkpt>
      <trkpt lat="46.8403" lon="6.33406">
        <ele>853</ele>
        <time>2021-09-18T08:17:43.494Z</time>
      </trkpt>
      <trkpt lat="46.83987" lon="6.33368">
        <ele>858.2</ele>
        <time>2021-09-18T08:19:39.060Z</time>
      </trkpt>
      <trkpt lat="46.83974" lon="6.33363">
        <ele>857.7</ele>
        <time>2021-09-18T08:19:42.322Z</time>
      </trkpt>
      <trkpt lat="46.83929" lon="6.33319">
        <ele>859.4</ele>
        <time>2021-09-18T08:20:47.251Z</time>
      </trkpt>
      <trkpt lat="46.83908" lon="6.333">
        <ele>862.5</ele>
        <time>2021-09-18T08:22:00.286Z</time>
      </trkpt>
      <trkpt lat="46.83896" lon="6.33301">
        <ele>861.8</ele>
        <time>2021-09-18T08:22:02.705Z</time>
      </trkpt>
      <trkpt lat="46.83855" lon="6.33302">
        <ele>859.7</ele>
        <time>2021-09-18T08:22:11.457Z</time>
      </trkpt>
      <trkpt lat="46.83842" lon="6.33299">
        <ele>860</ele>
        <time>2021-09-18T08:22:25.668Z</time>
      </trkpt>
      <trkpt lat="46.83827" lon="6.33296">
        <ele>860</ele>
        <time>2021-09-18T08:22:38.603Z</time>
      </trkpt>
      <trkpt lat="46.83809" lon="6.33297">
        <ele>858.8</ele>
        <time>2021-09-18T08:22:41.998Z</time>
      </trkpt>
      <trkpt lat="46.83785" lon="6.33288">
        <ele>859.8</ele>
        <time>2021-09-18T08:23:15.583Z</time>
      </trkpt>
      <trkpt lat="46.83769" lon="6.33284">
        <ele>859.8</ele>
        <time>2021-09-18T08:23:29.451Z</time>
      </trkpt>
      <trkpt lat="46.83759" lon="6.33272">
        <ele>861.9</ele>
        <time>2021-09-18T08:24:12.086Z</time>
      </trkpt>
      <trkpt lat="46.83752" lon="6.33248">
        <ele>866.6</ele>
        <time>2021-09-18T08:25:10.902Z</time>
      </trkpt>
      <trkpt lat="46.83734" lon="6.33226">
        <ele>868.4</ele>
        <time>2021-09-18T08:25:53.391Z</time>
      </trkpt>
      <trkpt lat="46.83712" lon="6.33206">
        <ele>868.7</ele>
        <time>2021-09-18T08:26:18.151Z</time>
      </trkpt>
      <trkpt lat="46.83688" lon="6.33181">
        <ele>868.8</ele>
        <time>2021-09-18T08:26:44.137Z</time>
      </trkpt>
      <trkpt lat="46.83687" lon="6.33149">
        <ele>874.2</ele>
        <time>2021-09-18T08:27:56.351Z</time>
      </trkpt>
      <trkpt lat="46.83689" lon="6.33132">
        <ele>878.1</ele>
        <time>2021-09-18T08:28:35.237Z</time>
      </trkpt>
      <trkpt lat="46.83657" lon="6.33105">
        <ele>877.1</ele>
        <time>2021-09-18T08:28:45.184Z</time>
      </trkpt>
      <trkpt lat="46.83648" lon="6.3309">
        <ele>877.5</ele>
        <time>2021-09-18T08:29:01.124Z</time>
      </trkpt>
      <trkpt lat="46.83645" lon="6.33071">
        <ele>879.3</ele>
        <time>2021-09-18T08:29:45.083Z</time>
      </trkpt>
      <trkpt lat="46.83644" lon="6.32979">
        <ele>891.1</ele>
        <time>2021-09-18T08:33:12.508Z</time>
      </trkpt>
      <trkpt lat="46.8364" lon="6.32963">
        <ele>892.7</ele>
        <time>2021-09-18T08:33:50.911Z</time>
      </trkpt>
      <trkpt lat="46.83632" lon="6.32952">
        <ele>892.2</ele>
        <time>2021-09-18T08:33:53.375Z</time>
      </trkpt>
      <trkpt lat="46.83616" lon="6.32928">
        <ele>891.2</ele>
        <time>2021-09-18T08:33:58.609Z</time>
      </trkpt>
      <trkpt lat="46.83597" lon="6.32895">
        <ele>889.9</ele>
        <time>2021-09-18T08:34:05.318Z</time>
      </trkpt>
      <trkpt lat="46.83587" lon="6.32863">
        <ele>891</ele>
        <time>2021-09-18T08:34:40.288Z</time>
      </trkpt>
      <trkpt lat="46.83567" lon="6.32746">
        <ele>897.8</ele>
        <time>2021-09-18T08:37:16.782Z</time>
      </trkpt>
      <trkpt lat="46.83558" lon="6.32716">
        <ele>897.6</ele>
        <time>2021-09-18T08:37:24.291Z</time>
      </trkpt>
      <trkpt lat="46.83546" lon="6.32676">
        <ele>898.3</ele>
        <time>2021-09-18T08:37:56.794Z</time>
      </trkpt>
      <trkpt lat="46.83525" lon="6.32638">
        <ele>897.6</ele>
        <time>2021-09-18T08:38:06.430Z</time>
      </trkpt>
      <trkpt lat="46.83504" lon="6.3259">
        <ele>899.5</ele>
        <time>2021-09-18T08:39:04.184Z</time>
      </trkpt>
      <trkpt lat="46.83485" lon="6.32506">
        <ele>898.4</ele>
        <time>2021-09-18T08:39:22.216Z</time>
      </trkpt>
      <trkpt lat="46.83466" lon="6.32478">
        <ele>894.3</ele>
        <time>2021-09-18T08:39:27.765Z</time>
      </trkpt>
      <trkpt lat="46.83439" lon="6.32438">
        <ele>890.3</ele>
        <time>2021-09-18T08:39:35.671Z</time>
      </trkpt>
      <trkpt lat="46.83423" lon="6.3239">
        <ele>888.4</ele>
        <time>2021-09-18T08:39:43.414Z</time>
      </trkpt>
      <trkpt lat="46.83411" lon="6.32348">
        <ele>885.8</ele>
        <time>2021-09-18T08:39:49.818Z</time>
      </trkpt>
      <trkpt lat="46.83405" lon="6.32316">
        <ele>884</ele>
        <time>2021-09-18T08:39:54.487Z</time>
      </trkpt>
      <trkpt lat="46.83404" lon="6.32296">
        <ele>883.5</ele>
        <time>2021-09-18T08:39:57.840Z</time>
      </trkpt>
      <trkpt lat="46.83406" lon="6.32269">
        <ele>883.5</ele>
        <time>2021-09-18T08:40:13.713Z</time>
      </trkpt>
      <trkpt lat="46.83414" lon="6.32232">
        <ele>882.9</ele>
        <time>2021-09-18T08:40:21.223Z</time>
      </trkpt>
      <trkpt lat="46.83416" lon="6.32205">
        <ele>880.7</ele>
        <time>2021-09-18T08:40:25.045Z</time>
      </trkpt>
      <trkpt lat="46.8343" lon="6.32176">
        <ele>878.5</ele>
        <time>2021-09-18T08:40:30.039Z</time>
      </trkpt>
      <trkpt lat="46.83466" lon="6.32128">
        <ele>879.8</ele>
        <time>2021-09-18T08:41:25.133Z</time>
      </trkpt>
      <trkpt lat="46.83503" lon="6.32079">
        <ele>884.8</ele>
        <time>2021-09-18T08:43:16.218Z</time>
      </trkpt>
      <trkpt lat="46.83504" lon="6.32055">
        <ele>887</ele>
        <time>2021-09-18T08:44:10.424Z</time>
      </trkpt>
      <trkpt lat="46.83548" lon="6.31991">
        <ele>902.2</ele>
        <time>2021-09-18T08:47:34.976Z</time>
      </trkpt>
      <trkpt lat="46.83546" lon="6.31974">
        <ele>904.2</ele>
        <time>2021-09-18T08:48:13.863Z</time>
      </trkpt>
      <trkpt lat="46.8354" lon="6.31959">
        <ele>905.3</ele>
        <time>2021-09-18T08:48:38.483Z</time>
      </trkpt>
      <trkpt lat="46.83538" lon="6.31949">
        <ele>906.5</ele>
        <time>2021-09-18T08:49:01.970Z</time>
      </trkpt>
      <trkpt lat="46.83509" lon="6.31904">
        <ele>906.5</ele>
        <time>2021-09-18T08:49:38.104Z</time>
      </trkpt>
      <trkpt lat="46.835" lon="6.31887">
        <ele>905.8</ele>
        <time>2021-09-18T08:49:41.343Z</time>
      </trkpt>
      <trkpt lat="46.83492" lon="6.31861">
        <ele>905.7</ele>
        <time>2021-09-18T08:49:56.792Z</time>
      </trkpt>
      <trkpt lat="46.83474" lon="6.31826">
        <ele>904.2</ele>
        <time>2021-09-18T08:50:03.248Z</time>
      </trkpt>
      <trkpt lat="46.83468" lon="6.31821">
        <ele>903.4</ele>
        <time>2021-09-18T08:50:04.668Z</time>
      </trkpt>
      <trkpt lat="46.8345" lon="6.31817">
        <ele>900.4</ele>
        <time>2021-09-18T08:50:08.413Z</time>
      </trkpt>
      <trkpt lat="46.83445" lon="6.31813">
        <ele>899.9</ele>
        <time>2021-09-18T08:50:09.585Z</time>
      </trkpt>
      <trkpt lat="46.83441" lon="6.31801">
        <ele>900.6</ele>
        <time>2021-09-18T08:50:26.114Z</time>
      </trkpt>
      <trkpt lat="46.83428" lon="6.31782">
        <ele>900.9</ele>
        <time>2021-09-18T08:50:44.581Z</time>
      </trkpt>
      <trkpt lat="46.83405" lon="6.31761">
        <ele>900.7</ele>
        <time>2021-09-18T08:50:53.861Z</time>
      </trkpt>
      <trkpt lat="46.83395" lon="6.31749">
        <ele>900.6</ele>
        <time>2021-09-18T08:50:58.267Z</time>
      </trkpt>
      <trkpt lat="46.83382" lon="6.31735">
        <ele>900.4</ele>
        <time>2021-09-18T08:51:03.436Z</time>
      </trkpt>
      <trkpt lat="46.83364" lon="6.31705">
        <ele>901.9</ele>
        <time>2021-09-18T08:51:45.584Z</time>
      </trkpt>
      <trkpt lat="46.83352" lon="6.31688">
        <ele>902.4</ele>
        <time>2021-09-18T08:52:05.252Z</time>
      </trkpt>
      <trkpt lat="46.83327" lon="6.31666">
        <ele>902.3</ele>
        <time>2021-09-18T08:52:28.939Z</time>
      </trkpt>
      <trkpt lat="46.83293" lon="6.3162">
        <ele>902.8</ele>
        <time>2021-09-18T08:53:12.863Z</time>
      </trkpt>
      <trkpt lat="46.83278" lon="6.316">
        <ele>903.5</ele>
        <time>2021-09-18T08:53:38.216Z</time>
      </trkpt>
      <trkpt lat="46.83228" lon="6.3155">
        <ele>903.2</ele>
        <time>2021-09-18T08:54:26.324Z</time>
      </trkpt>
      <trkpt lat="46.8318" lon="6.3149">
        <ele>906</ele>
        <time>2021-09-18T08:55:57.179Z</time>
      </trkpt>
      <trkpt lat="46.83138" lon="6.31438">
        <ele>907.4</ele>
        <time>2021-09-18T08:56:58.489Z</time>
      </trkpt>
      <trkpt lat="46.83096" lon="6.31401">
        <ele>906.2</ele>
        <time>2021-09-18T08:57:12.074Z</time>
      </trkpt>
      <trkpt lat="46.83023" lon="6.31318">
        <ele>904</ele>
        <time>2021-09-18T08:57:37.890Z</time>
      </trkpt>
      <trkpt lat="46.82999" lon="6.31297">
        <ele>901.7</ele>
        <time>2021-09-18T08:57:43.644Z</time>
      </trkpt>
      <trkpt lat="46.82969" lon="6.31267">
        <ele>901.4</ele>
        <time>2021-09-18T08:57:55.934Z</time>
      </trkpt>
      <trkpt lat="46.82969" lon="6.31279">
        <ele>900.8</ele>
        <time>2021-09-18T08:57:57.623Z</time>
      </trkpt>
      <trkpt lat="46.82957" lon="6.31311">
        <ele>898.9</ele>
        <time>2021-09-18T08:58:02.758Z</time>
      </trkpt>
      <trkpt lat="46.82954" lon="6.31326">
        <ele>898.1</ele>
        <time>2021-09-18T08:58:04.957Z</time>
      </trkpt>
      <trkpt lat="46.82946" lon="6.31324">
        <ele>897.8</ele>
        <time>2021-09-18T08:58:06.931Z</time>
      </trkpt>
      <trkpt lat="46.82927" lon="6.31301">
        <ele>897.7</ele>
        <time>2021-09-18T08:58:26.776Z</time>
      </trkpt>
      <trkpt lat="46.82902" lon="6.3127">
        <ele>897.3</ele>
        <time>2021-09-18T08:58:37.296Z</time>
      </trkpt>
      <trkpt lat="46.82818" lon="6.31173">
        <ele>895.2</ele>
        <time>2021-09-18T08:59:08.648Z</time>
      </trkpt>
      <trkpt lat="46.8273" lon="6.31063">
        <ele>889.5</ele>
        <time>2021-09-18T08:59:33.790Z</time>
      </trkpt>
      <trkpt lat="46.82717" lon="6.31056">
        <ele>888.3</ele>
        <time>2021-09-18T08:59:36.640Z</time>
      </trkpt>
      <trkpt lat="46.82705" lon="6.31046">
        <ele>887.2</ele>
        <time>2021-09-18T08:59:39.481Z</time>
      </trkpt>
      <trkpt lat="46.82689" lon="6.31025">
        <ele>885.8</ele>
        <time>2021-09-18T08:59:43.581Z</time>
      </trkpt>
      <trkpt lat="46.82655" lon="6.30974">
        <ele>884.9</ele>
        <time>2021-09-18T08:59:58.044Z</time>
      </trkpt>
      <trkpt lat="46.82647" lon="6.30967">
        <ele>884.6</ele>
        <time>2021-09-18T09:00:00.423Z</time>
      </trkpt>
      <trkpt lat="46.82633" lon="6.30961">
        <ele>883.3</ele>
        <time>2021-09-18T09:00:03.424Z</time>
      </trkpt>
      <trkpt lat="46.82587" lon="6.30951">
        <ele>877.6</ele>
        <time>2021-09-18T09:00:12.989Z</time>
      </trkpt>
      <trkpt lat="46.8258" lon="6.30952">
        <ele>876.8</ele>
        <time>2021-09-18T09:00:14.436Z</time>
      </trkpt>
      <trkpt lat="46.82579" lon="6.30946">
        <ele>877.2</ele>
        <time>2021-09-18T09:00:23.360Z</time>
      </trkpt>
      <trkpt lat="46.82576" lon="6.30943">
        <ele>877.3</ele>
        <time>2021-09-18T09:00:27.512Z</time>
      </trkpt>
      <trkpt lat="46.82537" lon="6.30923">
        <ele>875.6</ele>
        <time>2021-09-18T09:00:37.168Z</time>
      </trkpt>
      <trkpt lat="46.82529" lon="6.30919">
        <ele>875.3</ele>
        <time>2021-09-18T09:00:39.255Z</time>
      </trkpt>
      <trkpt lat="46.82523" lon="6.30918">
        <ele>874.9</ele>
        <time>2021-09-18T09:00:40.396Z</time>
      </trkpt>
      <trkpt lat="46.82515" lon="6.3092">
        <ele>874</ele>
        <time>2021-09-18T09:00:42.065Z</time>
      </trkpt>
      <trkpt lat="46.82506" lon="6.30916">
        <ele>873.6</ele>
        <time>2021-09-18T09:00:44.235Z</time>
      </trkpt>
      <trkpt lat="46.82483" lon="6.30911">
        <ele>872.9</ele>
        <time>2021-09-18T09:00:50.296Z</time>
      </trkpt>
      <trkpt lat="46.82458" lon="6.30915">
        <ele>872.1</ele>
        <time>2021-09-18T09:00:56.736Z</time>
      </trkpt>
      <trkpt lat="46.82441" lon="6.30922">
        <ele>871.4</ele>
        <time>2021-09-18T09:01:00.922Z</time>
      </trkpt>
      <trkpt lat="46.82436" lon="6.30914">
        <ele>871.7</ele>
        <time>2021-09-18T09:01:10.986Z</time>
      </trkpt>
      <trkpt lat="46.82419" lon="6.30898">
        <ele>872.4</ele>
        <time>2021-09-18T09:01:36.283Z</time>
      </trkpt>
      <trkpt lat="46.82357" lon="6.30845">
        <ele>877.8</ele>
        <time>2021-09-18T09:03:44.788Z</time>
      </trkpt>
      <trkpt lat="46.82336" lon="6.30832">
        <ele>879</ele>
        <time>2021-09-18T09:04:19.453Z</time>
      </trkpt>
      <trkpt lat="46.82328" lon="6.30827">
        <ele>879.5</ele>
        <time>2021-09-18T09:04:33.120Z</time>
      </trkpt>
      <trkpt lat="46.82305" lon="6.30919">
        <ele>877.3</ele>
        <time>2021-09-18T09:04:50.105Z</time>
      </trkpt>
      <trkpt lat="46.82282" lon="6.30986">
        <ele>875.3</ele>
        <time>2021-09-18T09:05:02.334Z</time>
      </trkpt>
      <trkpt lat="46.82252" lon="6.31045">
        <ele>873.3</ele>
        <time>2021-09-18T09:05:14.239Z</time>
      </trkpt>
      <trkpt lat="46.82233" lon="6.31073">
        <ele>872.5</ele>
        <time>2021-09-18T09:05:21.306Z</time>
      </trkpt>
      <trkpt lat="46.82211" lon="6.31103">
        <ele>872.1</ele>
        <time>2021-09-18T09:05:30.827Z</time>
      </trkpt>
      <trkpt lat="46.82197" lon="6.31119">
        <ele>871.9</ele>
        <time>2021-09-18T09:05:36.601Z</time>
      </trkpt>
      <trkpt lat="46.82165" lon="6.31127">
        <ele>872.4</ele>
        <time>2021-09-18T09:06:08.894Z</time>
      </trkpt>
      <trkpt lat="46.82131" lon="6.31131">
        <ele>872.5</ele>
        <time>2021-09-18T09:06:38.840Z</time>
      </trkpt>
      <trkpt lat="46.82094" lon="6.31131">
        <ele>872.9</ele>
        <time>2021-09-18T09:07:13.926Z</time>
      </trkpt>
      <trkpt lat="46.82065" lon="6.31121">
        <ele>873.1</ele>
        <time>2021-09-18T09:07:41.051Z</time>
      </trkpt>
      <trkpt lat="46.82025" lon="6.31094">
        <ele>873.4</ele>
        <time>2021-09-18T09:08:21.199Z</time>
      </trkpt>
      <trkpt lat="46.81983" lon="6.31065">
        <ele>873.2</ele>
        <time>2021-09-18T09:08:58.430Z</time>
      </trkpt>
      <trkpt lat="46.81958" lon="6.31024">
        <ele>874.4</ele>
        <time>2021-09-18T09:09:43.809Z</time>
      </trkpt>
      <trkpt lat="46.81906" lon="6.30955">
        <ele>875.5</ele>
        <time>2021-09-18T09:10:53.869Z</time>
      </trkpt>
      <trkpt lat="46.81881" lon="6.30893">
        <ele>876.9</ele>
        <time>2021-09-18T09:11:50.755Z</time>
      </trkpt>
      <trkpt lat="46.81869" lon="6.30847">
        <ele>877.3</ele>
        <time>2021-09-18T09:12:23.050Z</time>
      </trkpt>
      <trkpt lat="46.81868" lon="6.30813">
        <ele>877.8</ele>
        <time>2021-09-18T09:12:47.817Z</time>
      </trkpt>
      <trkpt lat="46.81863" lon="6.30774">
        <ele>877.4</ele>
        <time>2021-09-18T09:12:56.254Z</time>
      </trkpt>
      <trkpt lat="46.81853" lon="6.30766">
        <ele>876.6</ele>
        <time>2021-09-18T09:12:58.599Z</time>
      </trkpt>
      <trkpt lat="46.81845" lon="6.30771">
        <ele>875.8</ele>
        <time>2021-09-18T09:13:00.389Z</time>
      </trkpt>
      <trkpt lat="46.81828" lon="6.30778">
        <ele>874.3</ele>
        <time>2021-09-18T09:13:04.021Z</time>
      </trkpt>
      <trkpt lat="46.81813" lon="6.30781">
        <ele>873.4</ele>
        <time>2021-09-18T09:13:07.039Z</time>
      </trkpt>
      <trkpt lat="46.81802" lon="6.30782">
        <ele>872.7</ele>
        <time>2021-09-18T09:13:09.167Z</time>
      </trkpt>
      <trkpt lat="46.81793" lon="6.30781">
        <ele>872.1</ele>
        <time>2021-09-18T09:13:10.870Z</time>
      </trkpt>
      <trkpt lat="46.81782" lon="6.30776">
        <ele>871.6</ele>
        <time>2021-09-18T09:13:13.505Z</time>
      </trkpt>
      <trkpt lat="46.81766" lon="6.30765">
        <ele>871.1</ele>
        <time>2021-09-18T09:13:18.204Z</time>
      </trkpt>
      <trkpt lat="46.81681" lon="6.30699">
        <ele>873.3</ele>
        <time>2021-09-18T09:15:02.217Z</time>
      </trkpt>
      <trkpt lat="46.81646" lon="6.30663">
        <ele>874.3</ele>
        <time>2021-09-18T09:15:48.741Z</time>
      </trkpt>
      <trkpt lat="46.81605" lon="6.30615">
        <ele>874.5</ele>
        <time>2021-09-18T09:16:35.247Z</time>
      </trkpt>
      <trkpt lat="46.81533" lon="6.30519">
        <ele>873.1</ele>
        <time>2021-09-18T09:17:05.675Z</time>
      </trkpt>
      <trkpt lat="46.81497" lon="6.30473">
        <ele>872.7</ele>
        <time>2021-09-18T09:17:21.821Z</time>
      </trkpt>
      <trkpt lat="46.81477" lon="6.30432">
        <ele>872.8</ele>
        <time>2021-09-18T09:17:52.064Z</time>
      </trkpt>
      <trkpt lat="46.81461" lon="6.30404">
        <ele>872.1</ele>
        <time>2021-09-18T09:17:58.715Z</time>
      </trkpt>
      <trkpt lat="46.81438" lon="6.30382">
        <ele>869.8</ele>
        <time>2021-09-18T09:18:04.369Z</time>
      </trkpt>
      <trkpt lat="46.81358" lon="6.30316">
        <ele>860.3</ele>
        <time>2021-09-18T09:18:23.265Z</time>
      </trkpt>
      <trkpt lat="46.81343" lon="6.303">
        <ele>858.6</ele>
        <time>2021-09-18T09:18:27.085Z</time>
      </trkpt>
      <trkpt lat="46.81327" lon="6.30298">
        <ele>857.3</ele>
        <time>2021-09-18T09:18:30.387Z</time>
      </trkpt>
      <trkpt lat="46.81316" lon="6.3027">
        <ele>856.7</ele>
        <time>2021-09-18T09:18:36.331Z</time>
      </trkpt>
      <trkpt lat="46.81335" lon="6.30237">
        <ele>857.3</ele>
        <time>2021-09-18T09:19:07.316Z</time>
      </trkpt>
      <trkpt lat="46.81355" lon="6.30181">
        <ele>860</ele>
        <time>2021-09-18T09:20:17.637Z</time>
      </trkpt>
      <trkpt lat="46.81362" lon="6.30151">
        <ele>861.4</ele>
        <time>2021-09-18T09:20:53.455Z</time>
      </trkpt>
      <trkpt lat="46.81361" lon="6.3014">
        <ele>861.6</ele>
        <time>2021-09-18T09:21:02.006Z</time>
      </trkpt>
      <trkpt lat="46.81349" lon="6.30122">
        <ele>861.4</ele>
        <time>2021-09-18T09:21:07.565Z</time>
      </trkpt>
      <trkpt lat="46.81339" lon="6.30107">
        <ele>861.3</ele>
        <time>2021-09-18T09:21:18.627Z</time>
      </trkpt>
      <trkpt lat="46.81351" lon="6.30089">
        <ele>862.8</ele>
        <time>2021-09-18T09:21:52.605Z</time>
      </trkpt>
      <trkpt lat="46.81361" lon="6.30067">
        <ele>864.4</ele>
        <time>2021-09-18T09:22:28.723Z</time>
      </trkpt>
      <trkpt lat="46.81364" lon="6.30045">
        <ele>865.5</ele>
        <time>2021-09-18T09:22:55.449Z</time>
      </trkpt>
      <trkpt lat="46.8136" lon="6.30027">
        <ele>866.1</ele>
        <time>2021-09-18T09:23:14.343Z</time>
      </trkpt>
      <trkpt lat="46.81336" lon="6.29944">
        <ele>867.3</ele>
        <time>2021-09-18T09:24:18.456Z</time>
      </trkpt>
      <trkpt lat="46.81318" lon="6.29902">
        <ele>870.4</ele>
        <time>2021-09-18T09:25:27.984Z</time>
      </trkpt>
      <trkpt lat="46.81288" lon="6.29842">
        <ele>875.7</ele>
        <time>2021-09-18T09:27:25.816Z</time>
      </trkpt>
      <trkpt lat="46.81274" lon="6.29815">
        <ele>876.5</ele>
        <time>2021-09-18T09:27:54.776Z</time>
      </trkpt>
      <trkpt lat="46.81224" lon="6.29707">
        <ele>879.8</ele>
        <time>2021-09-18T09:29:50.071Z</time>
      </trkpt>
      <trkpt lat="46.81206" lon="6.29663">
        <ele>882.2</ele>
        <time>2021-09-18T09:30:49.671Z</time>
      </trkpt>
      <trkpt lat="46.81193" lon="6.29648">
        <ele>883.1</ele>
        <time>2021-09-18T09:31:15.140Z</time>
      </trkpt>
      <trkpt lat="46.81164" lon="6.29625">
        <ele>884</ele>
        <time>2021-09-18T09:31:52.720Z</time>
      </trkpt>
      <trkpt lat="46.81096" lon="6.29578">
        <ele>886.3</ele>
        <time>2021-09-18T09:33:21.991Z</time>
      </trkpt>
      <trkpt lat="46.81082" lon="6.29567">
        <ele>886.7</ele>
        <time>2021-09-18T09:33:39.640Z</time>
      </trkpt>
      <trkpt lat="46.81071" lon="6.29554">
        <ele>886.2</ele>
        <time>2021-09-18T09:33:43.135Z</time>
      </trkpt>
      <trkpt lat="46.81002" lon="6.2945">
        <ele>884.6</ele>
        <time>2021-09-18T09:34:13.408Z</time>
      </trkpt>
      <trkpt lat="46.80975" lon="6.29402">
        <ele>886.2</ele>
        <time>2021-09-18T09:35:08.845Z</time>
      </trkpt>
      <trkpt lat="46.8097" lon="6.29396">
        <ele>886.4</ele>
        <time>2021-09-18T09:35:16.556Z</time>
      </trkpt>
      <trkpt lat="46.8093" lon="6.29356">
        <ele>887.4</ele>
        <time>2021-09-18T09:36:07.618Z</time>
      </trkpt>
      <trkpt lat="46.80858" lon="6.29309">
        <ele>887.8</ele>
        <time>2021-09-18T09:37:18.276Z</time>
      </trkpt>
      <trkpt lat="46.8078" lon="6.29252">
        <ele>888.5</ele>
        <time>2021-09-18T09:38:38.700Z</time>
      </trkpt>
      <trkpt lat="46.80647" lon="6.29166">
        <ele>888.2</ele>
        <time>2021-09-18T09:40:39.155Z</time>
      </trkpt>
      <trkpt lat="46.80633" lon="6.29148">
        <ele>888.7</ele>
        <time>2021-09-18T09:41:00.275Z</time>
      </trkpt>
      <trkpt lat="46.80608" lon="6.29104">
        <ele>891.8</ele>
        <time>2021-09-18T09:42:12.583Z</time>
      </trkpt>
      <trkpt lat="46.80576" lon="6.29096">
        <ele>890.2</ele>
        <time>2021-09-18T09:42:19.628Z</time>
      </trkpt>
      <trkpt lat="46.8056" lon="6.29091">
        <ele>888.6</ele>
        <time>2021-09-18T09:42:22.993Z</time>
      </trkpt>
      <trkpt lat="46.80322" lon="6.28872">
        <ele>881.9</ele>
        <time>2021-09-18T09:43:41.481Z</time>
      </trkpt>
      <trkpt lat="46.80297" lon="6.28846">
        <ele>881.7</ele>
        <time>2021-09-18T09:44:05.319Z</time>
      </trkpt>
      <trkpt lat="46.80247" lon="6.28794">
        <ele>881</ele>
        <time>2021-09-18T09:44:25.219Z</time>
      </trkpt>
      <trkpt lat="46.80165" lon="6.28697">
        <ele>876.5</ele>
        <time>2021-09-18T09:44:49.524Z</time>
      </trkpt>
      <trkpt lat="46.80165" lon="6.28697">
        <ele>876.5</ele>
        <time>2021-09-18T09:44:49.524Z</time>
      </trkpt>
      <trkpt lat="46.80165" lon="6.28697">
        <ele>876.5</ele>
        <time>2021-09-18T09:44:49.524Z</time>
      </trkpt>
      <trkpt lat="46.80097" lon="6.28776">
        <ele>873</ele>
        <time>2021-09-18T09:45:09.986Z</time>
      </trkpt>
      <trkpt lat="46.80066" lon="6.28771">
        <ele>872.3</ele>
        <time>2021-09-18T09:45:18.826Z</time>
      </trkpt>
      <trkpt lat="46.80019" lon="6.28748">
        <ele>872.8</ele>
        <time>2021-09-18T09:46:05.485Z</time>
      </trkpt>
      <trkpt lat="46.8" lon="6.28733">
        <ele>873</ele>
        <time>2021-09-18T09:46:25.647Z</time>
      </trkpt>
      <trkpt lat="46.79962" lon="6.2872">
        <ele>873</ele>
        <time>2021-09-18T09:46:58.992Z</time>
      </trkpt>
      <trkpt lat="46.79874" lon="6.28693">
        <ele>874.5</ele>
        <time>2021-09-18T09:48:29.672Z</time>
      </trkpt>
      <trkpt lat="46.79839" lon="6.28682">
        <ele>875.4</ele>
        <time>2021-09-18T09:49:09.410Z</time>
      </trkpt>
      <trkpt lat="46.79745" lon="6.28649">
        <ele>882.8</ele>
        <time>2021-09-18T09:52:04.242Z</time>
      </trkpt>
      <trkpt lat="46.79724" lon="6.28619">
        <ele>883</ele>
        <time>2021-09-18T09:52:31.007Z</time>
      </trkpt>
      <trkpt lat="46.79702" lon="6.286">
        <ele>883.9</ele>
        <time>2021-09-18T09:53:03.239Z</time>
      </trkpt>
      <trkpt lat="46.79662" lon="6.28576">
        <ele>886.2</ele>
        <time>2021-09-18T09:54:09.218Z</time>
      </trkpt>
      <trkpt lat="46.79604" lon="6.28536">
        <ele>889</ele>
        <time>2021-09-18T09:55:40.529Z</time>
      </trkpt>
      <trkpt lat="46.7954" lon="6.28462">
        <ele>895</ele>
        <time>2021-09-18T09:58:04.669Z</time>
      </trkpt>
      <trkpt lat="46.79516" lon="6.2845">
        <ele>896.5</ele>
        <time>2021-09-18T09:58:44.977Z</time>
      </trkpt>
      <trkpt lat="46.79494" lon="6.28438">
        <ele>897.8</ele>
        <time>2021-09-18T09:59:21.336Z</time>
      </trkpt>
      <trkpt lat="46.79473" lon="6.28417">
        <ele>899.3</ele>
        <time>2021-09-18T10:00:01.721Z</time>
      </trkpt>
      <trkpt lat="46.7934" lon="6.2821">
        <ele>899.3</ele>
        <time>2021-09-18T10:02:47.769Z</time>
      </trkpt>
      <trkpt lat="46.79298" lon="6.2814">
        <ele>900</ele>
        <time>2021-09-18T10:03:48.304Z</time>
      </trkpt>
      <trkpt lat="46.79207" lon="6.28048">
        <ele>896.9</ele>
        <time>2021-09-18T10:04:17.799Z</time>
      </trkpt>
      <trkpt lat="46.79124" lon="6.27945">
        <ele>890.1</ele>
        <time>2021-09-18T10:04:39.000Z</time>
      </trkpt>
      <trkpt lat="46.79098" lon="6.27887">
        <ele>884.4</ele>
        <time>2021-09-18T10:04:48.763Z</time>
      </trkpt>
      <trkpt lat="46.79064" lon="6.27789">
        <ele>877.7</ele>
        <time>2021-09-18T10:05:04.234Z</time>
      </trkpt>
      <trkpt lat="46.79035" lon="6.27813">
        <ele>875.9</ele>
        <time>2021-09-18T10:05:11.181Z</time>
      </trkpt>
      <trkpt lat="46.79008" lon="6.27829">
        <ele>873.7</ele>
        <time>2021-09-18T10:05:17.174Z</time>
      </trkpt>
      <trkpt lat="46.79001" lon="6.27827">
        <ele>873.1</ele>
        <time>2021-09-18T10:05:18.641Z</time>
      </trkpt>
      <trkpt lat="46.78964" lon="6.278">
        <ele>868.4</ele>
        <time>2021-09-18T10:05:27.148Z</time>
      </trkpt>
      <trkpt lat="46.78911" lon="6.27775">
        <ele>862.8</ele>
        <time>2021-09-18T10:05:38.603Z</time>
      </trkpt>
      <trkpt lat="46.78813" lon="6.27759">
        <ele>852.3</ele>
        <time>2021-09-18T10:05:58.885Z</time>
      </trkpt>
      <trkpt lat="46.78804" lon="6.27778">
        <ele>851.9</ele>
        <time>2021-09-18T10:06:03.228Z</time>
      </trkpt>
      <trkpt lat="46.78799" lon="6.27804">
        <ele>851.8</ele>
        <time>2021-09-18T10:06:17.817Z</time>
      </trkpt>
      <trkpt lat="46.78763" lon="6.27849">
        <ele>850.4</ele>
        <time>2021-09-18T10:06:30.242Z</time>
      </trkpt>
      <trkpt lat="46.7874" lon="6.27871">
        <ele>849.8</ele>
        <time>2021-09-18T10:06:38.089Z</time>
      </trkpt>
      <trkpt lat="46.78717" lon="6.27909">
        <ele>849.6</ele>
        <time>2021-09-18T10:07:05.353Z</time>
      </trkpt>
      <trkpt lat="46.78689" lon="6.27942">
        <ele>849</ele>
        <time>2021-09-18T10:07:16.269Z</time>
      </trkpt>
      <trkpt lat="46.78658" lon="6.28011">
        <ele>848.1</ele>
        <time>2021-09-18T10:07:33.570Z</time>
      </trkpt>
      <trkpt lat="46.78659" lon="6.28039">
        <ele>848.5</ele>
        <time>2021-09-18T10:07:53.841Z</time>
      </trkpt>
      <trkpt lat="46.78635" lon="6.28074">
        <ele>848.9</ele>
        <time>2021-09-18T10:08:26.327Z</time>
      </trkpt>
      <trkpt lat="46.78592" lon="6.28133">
        <ele>849</ele>
        <time>2021-09-18T10:09:17.530Z</time>
      </trkpt>
      <trkpt lat="46.78543" lon="6.28201">
        <ele>850.2</ele>
        <time>2021-09-18T10:10:26.495Z</time>
      </trkpt>
      <trkpt lat="46.78413" lon="6.28368">
        <ele>855.6</ele>
        <time>2021-09-18T10:13:53.578Z</time>
      </trkpt>
      <trkpt lat="46.78409" lon="6.28376">
        <ele>855.9</ele>
        <time>2021-09-18T10:14:03.320Z</time>
      </trkpt>
      <trkpt lat="46.78418" lon="6.28418">
        <ele>856</ele>
        <time>2021-09-18T10:14:29.873Z</time>
      </trkpt>
      <trkpt lat="46.78442" lon="6.2848">
        <ele>855.9</ele>
        <time>2021-09-18T10:15:10.270Z</time>
      </trkpt>
      <trkpt lat="46.78455" lon="6.28524">
        <ele>856.4</ele>
        <time>2021-09-18T10:15:42.852Z</time>
      </trkpt>
      <trkpt lat="46.78464" lon="6.28566">
        <ele>857.1</ele>
        <time>2021-09-18T10:16:15.557Z</time>
      </trkpt>
      <trkpt lat="46.78462" lon="6.28609">
        <ele>858.9</ele>
        <time>2021-09-18T10:17:03.067Z</time>
      </trkpt>
      <trkpt lat="46.78458" lon="6.28635">
        <ele>860.6</ele>
        <time>2021-09-18T10:17:41.076Z</time>
      </trkpt>
      <trkpt lat="46.78455" lon="6.28645">
        <ele>861.5</ele>
        <time>2021-09-18T10:18:01.804Z</time>
      </trkpt>
      <trkpt lat="46.78446" lon="6.28671">
        <ele>864.1</ele>
        <time>2021-09-18T10:19:04.724Z</time>
      </trkpt>
      <trkpt lat="46.78486" lon="6.28702">
        <ele>863.8</ele>
        <time>2021-09-18T10:19:39.847Z</time>
      </trkpt>
      <trkpt lat="46.78518" lon="6.2872">
        <ele>863</ele>
        <time>2021-09-18T10:19:49.469Z</time>
      </trkpt>
      <trkpt lat="46.78547" lon="6.28743">
        <ele>863.1</ele>
        <time>2021-09-18T10:20:18.469Z</time>
      </trkpt>
      <trkpt lat="46.78612" lon="6.28824">
        <ele>868.9</ele>
        <time>2021-09-18T10:22:43.055Z</time>
      </trkpt>
      <trkpt lat="46.78692" lon="6.28915">
        <ele>870.4</ele>
        <time>2021-09-18T10:24:23.269Z</time>
      </trkpt>
      <trkpt lat="46.78713" lon="6.28932">
        <ele>869.3</ele>
        <time>2021-09-18T10:24:28.642Z</time>
      </trkpt>
      <trkpt lat="46.78722" lon="6.28932">
        <ele>868.2</ele>
        <time>2021-09-18T10:24:30.493Z</time>
      </trkpt>
      <trkpt lat="46.78732" lon="6.28905">
        <ele>864.3</ele>
        <time>2021-09-18T10:24:34.816Z</time>
      </trkpt>
      <trkpt lat="46.78757" lon="6.28934">
        <ele>864.2</ele>
        <time>2021-09-18T10:25:00.844Z</time>
      </trkpt>
      <trkpt lat="46.78747" lon="6.28959">
        <ele>867.4</ele>
        <time>2021-09-18T10:26:06.174Z</time>
      </trkpt>
      <trkpt lat="46.78752" lon="6.28982">
        <ele>869.2</ele>
        <time>2021-09-18T10:26:46.387Z</time>
      </trkpt>
      <trkpt lat="46.78756" lon="6.29019">
        <ele>872</ele>
        <time>2021-09-18T10:27:48.963Z</time>
      </trkpt>
      <trkpt lat="46.78775" lon="6.29061">
        <ele>874.2</ele>
        <time>2021-09-18T10:28:45.585Z</time>
      </trkpt>
      <trkpt lat="46.78853" lon="6.29161">
        <ele>874.9</ele>
        <time>2021-09-18T10:30:20.097Z</time>
      </trkpt>
      <trkpt lat="46.78883" lon="6.2921">
        <ele>875.4</ele>
        <time>2021-09-18T10:31:02.905Z</time>
      </trkpt>
      <trkpt lat="46.7893" lon="6.2928">
        <ele>876.6</ele>
        <time>2021-09-18T10:32:11.487Z</time>
      </trkpt>
      <trkpt lat="46.79057" lon="6.29449">
        <ele>881.2</ele>
        <time>2021-09-18T10:35:25.969Z</time>
      </trkpt>
      <trkpt lat="46.79065" lon="6.2946">
        <ele>881.3</ele>
        <time>2021-09-18T10:35:36.210Z</time>
      </trkpt>
      <trkpt lat="46.79085" lon="6.29471">
        <ele>879.9</ele>
        <time>2021-09-18T10:35:40.272Z</time>
      </trkpt>
      <trkpt lat="46.79122" lon="6.29518">
        <ele>879.6</ele>
        <time>2021-09-18T10:36:18.576Z</time>
      </trkpt>
      <trkpt lat="46.7928" lon="6.29727">
        <ele>882.4</ele>
        <time>2021-09-18T10:39:45.606Z</time>
      </trkpt>
      <trkpt lat="46.79298" lon="6.29708">
        <ele>878.3</ele>
        <time>2021-09-18T10:39:50.174Z</time>
      </trkpt>
      <trkpt lat="46.79312" lon="6.29705">
        <ele>876.4</ele>
        <time>2021-09-18T10:39:53.084Z</time>
      </trkpt>
      <trkpt lat="46.79325" lon="6.29687">
        <ele>873.5</ele>
        <time>2021-09-18T10:39:56.769Z</time>
      </trkpt>
      <trkpt lat="46.79308" lon="6.29657">
        <ele>872.7</ele>
        <time>2021-09-18T10:40:03.725Z</time>
      </trkpt>
      <trkpt lat="46.79271" lon="6.29587">
        <ele>869.6</ele>
        <time>2021-09-18T10:40:16.648Z</time>
      </trkpt>
      <trkpt lat="46.79234" lon="6.29506">
        <ele>867.1</ele>
        <time>2021-09-18T10:40:32.775Z</time>
      </trkpt>
      <trkpt lat="46.7923" lon="6.29489">
        <ele>866</ele>
        <time>2021-09-18T10:40:35.306Z</time>
      </trkpt>
      <trkpt lat="46.79229" lon="6.29473">
        <ele>864.6</ele>
        <time>2021-09-18T10:40:37.568Z</time>
      </trkpt>
      <trkpt lat="46.7923" lon="6.294">
        <ele>858.6</ele>
        <time>2021-09-18T10:40:47.850Z</time>
      </trkpt>
      <trkpt lat="46.79227" lon="6.29384">
        <ele>857.9</ele>
        <time>2021-09-18T10:40:50.075Z</time>
      </trkpt>
      <trkpt lat="46.79261" lon="6.29382">
        <ele>855.6</ele>
        <time>2021-09-18T10:40:57.074Z</time>
      </trkpt>
      <trkpt lat="46.79294" lon="6.2942">
        <ele>855.3</ele>
        <time>2021-09-18T10:41:29.436Z</time>
      </trkpt>
      <trkpt lat="46.7932" lon="6.29456">
        <ele>858.7</ele>
        <time>2021-09-18T10:42:45.267Z</time>
      </trkpt>
      <trkpt lat="46.7934" lon="6.29484">
        <ele>861.5</ele>
        <time>2021-09-18T10:43:47.467Z</time>
      </trkpt>
      <trkpt lat="46.79364" lon="6.29494">
        <ele>858.1</ele>
        <time>2021-09-18T10:43:52.600Z</time>
      </trkpt>
      <trkpt lat="46.79408" lon="6.2955">
        <ele>857</ele>
        <time>2021-09-18T10:44:09.847Z</time>
      </trkpt>
      <trkpt lat="46.79426" lon="6.29574">
        <ele>858.6</ele>
        <time>2021-09-18T10:44:50.416Z</time>
      </trkpt>
      <trkpt lat="46.79465" lon="6.29592">
        <ele>857</ele>
        <time>2021-09-18T10:45:00.157Z</time>
      </trkpt>
      <trkpt lat="46.79532" lon="6.29603">
        <ele>854.1</ele>
        <time>2021-09-18T10:45:15.636Z</time>
      </trkpt>
      <trkpt lat="46.79574" lon="6.29624">
        <ele>855.4</ele>
        <time>2021-09-18T10:46:07.466Z</time>
      </trkpt>
      <trkpt lat="46.79622" lon="6.29737">
        <ele>858.5</ele>
        <time>2021-09-18T10:48:00.505Z</time>
      </trkpt>
      <trkpt lat="46.79644" lon="6.29794">
        <ele>857.5</ele>
        <time>2021-09-18T10:48:13.218Z</time>
      </trkpt>
      <trkpt lat="46.79668" lon="6.29812">
        <ele>854.4</ele>
        <time>2021-09-18T10:48:18.767Z</time>
      </trkpt>
      <trkpt lat="46.79673" lon="6.29834">
        <ele>855.5</ele>
        <time>2021-09-18T10:48:45.910Z</time>
      </trkpt>
      <trkpt lat="46.79704" lon="6.29901">
        <ele>858.2</ele>
        <time>2021-09-18T10:50:07.953Z</time>
      </trkpt>
      <trkpt lat="46.79742" lon="6.29958">
        <ele>860.3</ele>
        <time>2021-09-18T10:51:19.894Z</time>
      </trkpt>
      <trkpt lat="46.79779" lon="6.30009">
        <ele>863.8</ele>
        <time>2021-09-18T10:52:46.569Z</time>
      </trkpt>
      <trkpt lat="46.79827" lon="6.30076">
        <ele>863.9</ele>
        <time>2021-09-18T10:53:44.085Z</time>
      </trkpt>
      <trkpt lat="46.79855" lon="6.30108">
        <ele>863.1</ele>
        <time>2021-09-18T10:53:54.154Z</time>
      </trkpt>
      <trkpt lat="46.79894" lon="6.30145">
        <ele>859.1</ele>
        <time>2021-09-18T10:54:03.718Z</time>
      </trkpt>
      <trkpt lat="46.79972" lon="6.30224">
        <ele>857.7</ele>
        <time>2021-09-18T10:54:33.206Z</time>
      </trkpt>
      <trkpt lat="46.80016" lon="6.30293">
        <ele>858</ele>
        <time>2021-09-18T10:55:30.809Z</time>
      </trkpt>
      <trkpt lat="46.80074" lon="6.30372">
        <ele>858.2</ele>
        <time>2021-09-18T10:56:40.163Z</time>
      </trkpt>
      <trkpt lat="46.80079" lon="6.30378">
        <ele>858.2</ele>
        <time>2021-09-18T10:56:45.691Z</time>
      </trkpt>
      <trkpt lat="46.8012" lon="6.30406">
        <ele>855.9</ele>
        <time>2021-09-18T10:56:55.383Z</time>
      </trkpt>
      <trkpt lat="46.80155" lon="6.30427">
        <ele>852.1</ele>
        <time>2021-09-18T10:57:03.165Z</time>
      </trkpt>
      <trkpt lat="46.80175" lon="6.30429">
        <ele>850.2</ele>
        <time>2021-09-18T10:57:07.289Z</time>
      </trkpt>
      <trkpt lat="46.80204" lon="6.30457">
        <ele>853.6</ele>
        <time>2021-09-18T10:58:22.907Z</time>
      </trkpt>
      <trkpt lat="46.80215" lon="6.30461">
        <ele>853.5</ele>
        <time>2021-09-18T10:58:26.710Z</time>
      </trkpt>
      <trkpt lat="46.80241" lon="6.30458">
        <ele>851.9</ele>
        <time>2021-09-18T10:58:31.831Z</time>
      </trkpt>
      <trkpt lat="46.80273" lon="6.30471">
        <ele>852.4</ele>
        <time>2021-09-18T10:59:04.747Z</time>
      </trkpt>
      <trkpt lat="46.80304" lon="6.30491">
        <ele>853.6</ele>
        <time>2021-09-18T10:59:47.599Z</time>
      </trkpt>
      <trkpt lat="46.80344" lon="6.30518">
        <ele>854.6</ele>
        <time>2021-09-18T11:00:35.125Z</time>
      </trkpt>
      <trkpt lat="46.80359" lon="6.30531">
        <ele>854.6</ele>
        <time>2021-09-18T11:00:50.026Z</time>
      </trkpt>
      <trkpt lat="46.80382" lon="6.30539">
        <ele>853.8</ele>
        <time>2021-09-18T11:00:55.956Z</time>
      </trkpt>
      <trkpt lat="46.80392" lon="6.30547">
        <ele>853.9</ele>
        <time>2021-09-18T11:01:06.548Z</time>
      </trkpt>
      <trkpt lat="46.80396" lon="6.30551">
        <ele>854.1</ele>
        <time>2021-09-18T11:01:13.205Z</time>
      </trkpt>
      <trkpt lat="46.80392" lon="6.30555">
        <ele>854.7</ele>
        <time>2021-09-18T11:01:27.223Z</time>
      </trkpt>
      <trkpt lat="46.8038" lon="6.30554">
        <ele>855.2</ele>
        <time>2021-09-18T11:01:43.814Z</time>
      </trkpt>
      <trkpt lat="46.80382" lon="6.30559">
        <ele>855.6</ele>
        <time>2021-09-18T11:01:52.700Z</time>
      </trkpt>
      <trkpt lat="46.80386" lon="6.30571">
        <ele>856.4</ele>
        <time>2021-09-18T11:02:10.804Z</time>
      </trkpt>
      <trkpt lat="46.80395" lon="6.30581">
        <ele>856.9</ele>
        <time>2021-09-18T11:02:27.042Z</time>
      </trkpt>
      <trkpt lat="46.80385" lon="6.30586">
        <ele>857.8</ele>
        <time>2021-09-18T11:02:47.556Z</time>
      </trkpt>
      <trkpt lat="46.8038" lon="6.30591">
        <ele>858.4</ele>
        <time>2021-09-18T11:03:00.891Z</time>
      </trkpt>
      <trkpt lat="46.80381" lon="6.30604">
        <ele>859.5</ele>
        <time>2021-09-18T11:03:26.483Z</time>
      </trkpt>
      <trkpt lat="46.80374" lon="6.30607">
        <ele>860</ele>
        <time>2021-09-18T11:03:38.888Z</time>
      </trkpt>
      <trkpt lat="46.80365" lon="6.3061">
        <ele>860.7</ele>
        <time>2021-09-18T11:03:55.488Z</time>
      </trkpt>
      <trkpt lat="46.80353" lon="6.30614">
        <ele>861.6</ele>
        <time>2021-09-18T11:04:17.158Z</time>
      </trkpt>
      <trkpt lat="46.80351" lon="6.30621">
        <ele>862.3</ele>
        <time>2021-09-18T11:04:34.269Z</time>
      </trkpt>
      <trkpt lat="46.80352" lon="6.30646">
        <ele>864.3</ele>
        <time>2021-09-18T11:05:19.743Z</time>
      </trkpt>
      <trkpt lat="46.80352" lon="6.30676">
        <ele>867</ele>
        <time>2021-09-18T11:06:25.558Z</time>
      </trkpt>
      <trkpt lat="46.8035" lon="6.30686">
        <ele>868</ele>
        <time>2021-09-18T11:06:49.058Z</time>
      </trkpt>
      <trkpt lat="46.80374" lon="6.30713">
        <ele>869</ele>
        <time>2021-09-18T11:07:26.156Z</time>
      </trkpt>
      <trkpt lat="46.80462" lon="6.30828">
        <ele>869</ele>
        <time>2021-09-18T11:09:07.030Z</time>
      </trkpt>
      <trkpt lat="46.80468" lon="6.30831">
        <ele>868.6</ele>
        <time>2021-09-18T11:09:08.259Z</time>
      </trkpt>
      <trkpt lat="46.80475" lon="6.30826">
        <ele>867.8</ele>
        <time>2021-09-18T11:09:09.861Z</time>
      </trkpt>
      <trkpt lat="46.80526" lon="6.30834">
        <ele>864.1</ele>
        <time>2021-09-18T11:09:20.411Z</time>
      </trkpt>
      <trkpt lat="46.80623" lon="6.30864">
        <ele>859.3</ele>
        <time>2021-09-18T11:09:42.093Z</time>
      </trkpt>
      <trkpt lat="46.80649" lon="6.30873">
        <ele>857.6</ele>
        <time>2021-09-18T11:09:47.247Z</time>
      </trkpt>
      <trkpt lat="46.80683" lon="6.30842">
        <ele>853.2</ele>
        <time>2021-09-18T11:09:55.490Z</time>
      </trkpt>
      <trkpt lat="46.80691" lon="6.30842">
        <ele>852.6</ele>
        <time>2021-09-18T11:09:57.135Z</time>
      </trkpt>
      <trkpt lat="46.80696" lon="6.30846">
        <ele>852.4</ele>
        <time>2021-09-18T11:09:58.547Z</time>
      </trkpt>
      <trkpt lat="46.80766" lon="6.30956">
        <ele>851.9</ele>
        <time>2021-09-18T11:11:20.288Z</time>
      </trkpt>
      <trkpt lat="46.80773" lon="6.30962">
        <ele>852</ele>
        <time>2021-09-18T11:11:28.104Z</time>
      </trkpt>
      <trkpt lat="46.80779" lon="6.30957">
        <ele>851.6</ele>
        <time>2021-09-18T11:11:29.498Z</time>
      </trkpt>
      <trkpt lat="46.80782" lon="6.3096">
        <ele>851.7</ele>
        <time>2021-09-18T11:11:33.650Z</time>
      </trkpt>
      <trkpt lat="46.80781" lon="6.30971">
        <ele>852.3</ele>
        <time>2021-09-18T11:11:47.658Z</time>
      </trkpt>
      <trkpt lat="46.80788" lon="6.30988">
        <ele>853</ele>
        <time>2021-09-18T11:12:08.152Z</time>
      </trkpt>
      <trkpt lat="46.80847" lon="6.31082">
        <ele>852.2</ele>
        <time>2021-09-18T11:12:37.307Z</time>
      </trkpt>
      <trkpt lat="46.80851" lon="6.31086">
        <ele>852.3</ele>
        <time>2021-09-18T11:12:42.413Z</time>
      </trkpt>
      <trkpt lat="46.80865" lon="6.31081">
        <ele>851.1</ele>
        <time>2021-09-18T11:12:45.378Z</time>
      </trkpt>
      <trkpt lat="46.80871" lon="6.3108">
        <ele>850.7</ele>
        <time>2021-09-18T11:12:46.519Z</time>
      </trkpt>
      <trkpt lat="46.80879" lon="6.31088">
        <ele>850.7</ele>
        <time>2021-09-18T11:12:54.802Z</time>
      </trkpt>
      <trkpt lat="46.80901" lon="6.31127">
        <ele>851.9</ele>
        <time>2021-09-18T11:13:38.120Z</time>
      </trkpt>
      <trkpt lat="46.80946" lon="6.31181">
        <ele>852.4</ele>
        <time>2021-09-18T11:14:32.118Z</time>
      </trkpt>
      <trkpt lat="46.80978" lon="6.31218">
        <ele>854.6</ele>
        <time>2021-09-18T11:15:34.685Z</time>
      </trkpt>
      <trkpt lat="46.81022" lon="6.31255">
        <ele>854.2</ele>
        <time>2021-09-18T11:15:51.939Z</time>
      </trkpt>
      <trkpt lat="46.81034" lon="6.31268">
        <ele>853.6</ele>
        <time>2021-09-18T11:15:55.461Z</time>
      </trkpt>
      <trkpt lat="46.81057" lon="6.31304">
        <ele>852</ele>
        <time>2021-09-18T11:16:02.893Z</time>
      </trkpt>
      <trkpt lat="46.81105" lon="6.31368">
        <ele>851.1</ele>
        <time>2021-09-18T11:16:23.311Z</time>
      </trkpt>
      <trkpt lat="46.81112" lon="6.31389">
        <ele>852.4</ele>
        <time>2021-09-18T11:16:53.359Z</time>
      </trkpt>
      <trkpt lat="46.8112" lon="6.31401">
        <ele>852.6</ele>
        <time>2021-09-18T11:17:05.018Z</time>
      </trkpt>
      <trkpt lat="46.81129" lon="6.31418">
        <ele>852.7</ele>
        <time>2021-09-18T11:17:18.420Z</time>
      </trkpt>
      <trkpt lat="46.81139" lon="6.31434">
        <ele>853.3</ele>
        <time>2021-09-18T11:17:38.550Z</time>
      </trkpt>
      <trkpt lat="46.81161" lon="6.31451">
        <ele>852.5</ele>
        <time>2021-09-18T11:17:44.901Z</time>
      </trkpt>
      <trkpt lat="46.81183" lon="6.31471">
        <ele>852.7</ele>
        <time>2021-09-18T11:18:08.722Z</time>
      </trkpt>
      <trkpt lat="46.81213" lon="6.31506">
        <ele>852.7</ele>
        <time>2021-09-18T11:18:41.521Z</time>
      </trkpt>
      <trkpt lat="46.81258" lon="6.31553">
        <ele>851.4</ele>
        <time>2021-09-18T11:18:57.012Z</time>
      </trkpt>
      <trkpt lat="46.81291" lon="6.31578">
        <ele>850.8</ele>
        <time>2021-09-18T11:19:08.363Z</time>
      </trkpt>
      <trkpt lat="46.81302" lon="6.31589">
        <ele>850.8</ele>
        <time>2021-09-18T11:19:19.751Z</time>
      </trkpt>
      <trkpt lat="46.81301" lon="6.31597">
        <ele>851.8</ele>
        <time>2021-09-18T11:19:38.092Z</time>
      </trkpt>
      <trkpt lat="46.81296" lon="6.31608">
        <ele>853.4</ele>
        <time>2021-09-18T11:20:07.874Z</time>
      </trkpt>
      <trkpt lat="46.81293" lon="6.31617">
        <ele>854.5</ele>
        <time>2021-09-18T11:20:30.451Z</time>
      </trkpt>
      <trkpt lat="46.81316" lon="6.31639">
        <ele>854.8</ele>
        <time>2021-09-18T11:20:56.546Z</time>
      </trkpt>
      <trkpt lat="46.81353" lon="6.31673">
        <ele>855.6</ele>
        <time>2021-09-18T11:21:41.411Z</time>
      </trkpt>
      <trkpt lat="46.81374" lon="6.31699">
        <ele>855.9</ele>
        <time>2021-09-18T11:22:07.535Z</time>
      </trkpt>
      <trkpt lat="46.81393" lon="6.31746">
        <ele>856.2</ele>
        <time>2021-09-18T11:22:41.987Z</time>
      </trkpt>
      <trkpt lat="46.81411" lon="6.31762">
        <ele>854.7</ele>
        <time>2021-09-18T11:22:46.320Z</time>
      </trkpt>
      <trkpt lat="46.81426" lon="6.31769">
        <ele>853.9</ele>
        <time>2021-09-18T11:22:49.693Z</time>
      </trkpt>
      <trkpt lat="46.81455" lon="6.31803">
        <ele>853.3</ele>
        <time>2021-09-18T11:23:01.047Z</time>
      </trkpt>
      <trkpt lat="46.81499" lon="6.31776">
        <ele>851.4</ele>
        <time>2021-09-18T11:23:12.337Z</time>
      </trkpt>
      <trkpt lat="46.81531" lon="6.31748">
        <ele>848.4</ele>
        <time>2021-09-18T11:23:20.008Z</time>
      </trkpt>
      <trkpt lat="46.8154" lon="6.31749">
        <ele>847.7</ele>
        <time>2021-09-18T11:23:21.865Z</time>
      </trkpt>
      <trkpt lat="46.81553" lon="6.31773">
        <ele>847.5</ele>
        <time>2021-09-18T11:23:28.825Z</time>
      </trkpt>
      <trkpt lat="46.8157" lon="6.31794">
        <ele>847.5</ele>
        <time>2021-09-18T11:23:47.843Z</time>
      </trkpt>
      <trkpt lat="46.8161" lon="6.31831">
        <ele>848.6</ele>
        <time>2021-09-18T11:24:39.226Z</time>
      </trkpt>
      <trkpt lat="46.81619" lon="6.31849">
        <ele>849.1</ele>
        <time>2021-09-18T11:24:57.851Z</time>
      </trkpt>
      <trkpt lat="46.81626" lon="6.31881">
        <ele>849.9</ele>
        <time>2021-09-18T11:25:26.683Z</time>
      </trkpt>
      <trkpt lat="46.8165" lon="6.31909">
        <ele>849.1</ele>
        <time>2021-09-18T11:25:35.044Z</time>
      </trkpt>
      <trkpt lat="46.81662" lon="6.31934">
        <ele>850.2</ele>
        <time>2021-09-18T11:26:06.811Z</time>
      </trkpt>
      <trkpt lat="46.81674" lon="6.31988">
        <ele>855</ele>
        <time>2021-09-18T11:27:58.832Z</time>
      </trkpt>
      <trkpt lat="46.81686" lon="6.32055">
        <ele>856.4</ele>
        <time>2021-09-18T11:28:54.345Z</time>
      </trkpt>
      <trkpt lat="46.81693" lon="6.3209">
        <ele>856.4</ele>
        <time>2021-09-18T11:29:15.664Z</time>
      </trkpt>
      <trkpt lat="46.81715" lon="6.32153">
        <ele>854</ele>
        <time>2021-09-18T11:29:26.140Z</time>
      </trkpt>
      <trkpt lat="46.81712" lon="6.32157">
        <ele>854.7</ele>
        <time>2021-09-18T11:29:39.524Z</time>
      </trkpt>
      <trkpt lat="46.8172" lon="6.32182">
        <ele>855.5</ele>
        <time>2021-09-18T11:30:05.889Z</time>
      </trkpt>
      <trkpt lat="46.8175" lon="6.32225">
        <ele>857.1</ele>
        <time>2021-09-18T11:31:01.018Z</time>
      </trkpt>
      <trkpt lat="46.81784" lon="6.32272">
        <ele>858</ele>
        <time>2021-09-18T11:31:49.554Z</time>
      </trkpt>
      <trkpt lat="46.81797" lon="6.32275">
        <ele>856.6</ele>
        <time>2021-09-18T11:31:52.261Z</time>
      </trkpt>
      <trkpt lat="46.81819" lon="6.3225">
        <ele>852.7</ele>
        <time>2021-09-18T11:31:57.993Z</time>
      </trkpt>
      <trkpt lat="46.81872" lon="6.32277">
        <ele>850.3</ele>
        <time>2021-09-18T11:32:10.909Z</time>
      </trkpt>
      <trkpt lat="46.81884" lon="6.32285">
        <ele>849.8</ele>
        <time>2021-09-18T11:32:14.087Z</time>
      </trkpt>
      <trkpt lat="46.819" lon="6.32308">
        <ele>849.1</ele>
        <time>2021-09-18T11:32:19.871Z</time>
      </trkpt>
      <trkpt lat="46.81897" lon="6.32322">
        <ele>849.5</ele>
        <time>2021-09-18T11:32:33.378Z</time>
      </trkpt>
      <trkpt lat="46.81864" lon="6.32389">
        <ele>855.7</ele>
        <time>2021-09-18T11:34:52.068Z</time>
      </trkpt>
      <trkpt lat="46.81864" lon="6.324">
        <ele>856.5</ele>
        <time>2021-09-18T11:35:09.882Z</time>
      </trkpt>
      <trkpt lat="46.81838" lon="6.32449">
        <ele>866.4</ele>
        <time>2021-09-18T11:37:29.708Z</time>
      </trkpt>
      <trkpt lat="46.81851" lon="6.32464">
        <ele>866</ele>
        <time>2021-09-18T11:37:34.313Z</time>
      </trkpt>
      <trkpt lat="46.81863" lon="6.3249">
        <ele>867.1</ele>
        <time>2021-09-18T11:38:06.640Z</time>
      </trkpt>
      <trkpt lat="46.81899" lon="6.32531">
        <ele>868.1</ele>
        <time>2021-09-18T11:38:55.425Z</time>
      </trkpt>
      <trkpt lat="46.81927" lon="6.32559">
        <ele>869.2</ele>
        <time>2021-09-18T11:39:36.657Z</time>
      </trkpt>
      <trkpt lat="46.8194" lon="6.32564">
        <ele>867.3</ele>
        <time>2021-09-18T11:39:39.422Z</time>
      </trkpt>
      <trkpt lat="46.81947" lon="6.32578">
        <ele>868</ele>
        <time>2021-09-18T11:39:58.258Z</time>
      </trkpt>
      <trkpt lat="46.81924" lon="6.32556">
        <ele>869.3</ele>
        <time>2021-09-18T11:40:38.608Z</time>
      </trkpt>
      <trkpt lat="46.81868" lon="6.32493">
        <ele>866.5</ele>
        <time>2021-09-18T11:40:55.358Z</time>
      </trkpt>
      <trkpt lat="46.81841" lon="6.32445">
        <ele>865.3</ele>
        <time>2021-09-18T11:41:06.664Z</time>
      </trkpt>
      <trkpt lat="46.81853" lon="6.32419">
        <ele>859.8</ele>
        <time>2021-09-18T11:41:11.078Z</time>
      </trkpt>
      <trkpt lat="46.81865" lon="6.32401">
        <ele>856.4</ele>
        <time>2021-09-18T11:41:14.615Z</time>
      </trkpt>
      <trkpt lat="46.8187" lon="6.32379">
        <ele>854.4</ele>
        <time>2021-09-18T11:41:17.878Z</time>
      </trkpt>
      <trkpt lat="46.81898" lon="6.32325">
        <ele>849.5</ele>
        <time>2021-09-18T11:41:27.413Z</time>
      </trkpt>
      <trkpt lat="46.81901" lon="6.32314">
        <ele>849.1</ele>
        <time>2021-09-18T11:41:29.171Z</time>
      </trkpt>
      <trkpt lat="46.819" lon="6.32307">
        <ele>849.2</ele>
        <time>2021-09-18T11:41:34.314Z</time>
      </trkpt>
      <trkpt lat="46.81891" lon="6.32291">
        <ele>849.5</ele>
        <time>2021-09-18T11:41:49.336Z</time>
      </trkpt>
      <trkpt lat="46.81875" lon="6.32274">
        <ele>850.1</ele>
        <time>2021-09-18T11:42:12.739Z</time>
      </trkpt>
      <trkpt lat="46.81855" lon="6.32262">
        <ele>850.7</ele>
        <time>2021-09-18T11:42:37.506Z</time>
      </trkpt>
      <trkpt lat="46.81831" lon="6.32251">
        <ele>851.3</ele>
        <time>2021-09-18T11:43:05.004Z</time>
      </trkpt>
      <trkpt lat="46.81819" lon="6.32249">
        <ele>852.6</ele>
        <time>2021-09-18T11:43:33.995Z</time>
      </trkpt>
      <trkpt lat="46.81795" lon="6.32275">
        <ele>856.8</ele>
        <time>2021-09-18T11:45:12.448Z</time>
      </trkpt>
      <trkpt lat="46.81787" lon="6.32275">
        <ele>857.7</ele>
        <time>2021-09-18T11:45:32.688Z</time>
      </trkpt>
      <trkpt lat="46.81732" lon="6.32198">
        <ele>855.6</ele>
        <time>2021-09-18T11:45:53.084Z</time>
      </trkpt>
      <trkpt lat="46.81787" lon="6.32275">
        <ele>857.7</ele>
        <time>2021-09-18T11:47:20.145Z</time>
      </trkpt>
      <trkpt lat="46.81795" lon="6.32275">
        <ele>856.8</ele>
        <time>2021-09-18T11:47:21.791Z</time>
      </trkpt>
      <trkpt lat="46.81819" lon="6.32249">
        <ele>852.6</ele>
        <time>2021-09-18T11:47:27.936Z</time>
      </trkpt>
      <trkpt lat="46.81831" lon="6.32251">
        <ele>851.3</ele>
        <time>2021-09-18T11:47:30.420Z</time>
      </trkpt>
      <trkpt lat="46.81855" lon="6.32262">
        <ele>850.7</ele>
        <time>2021-09-18T11:47:37.436Z</time>
      </trkpt>
      <trkpt lat="46.81875" lon="6.32274">
        <ele>850.1</ele>
        <time>2021-09-18T11:47:43.214Z</time>
      </trkpt>
      <trkpt lat="46.81891" lon="6.32291">
        <ele>849.5</ele>
        <time>2021-09-18T11:47:48.358Z</time>
      </trkpt>
      <trkpt lat="46.819" lon="6.32307">
        <ele>849.2</ele>
        <time>2021-09-18T11:47:52.434Z</time>
      </trkpt>
      <trkpt lat="46.81901" lon="6.32314">
        <ele>849.1</ele>
        <time>2021-09-18T11:47:53.854Z</time>
      </trkpt>
      <trkpt lat="46.81898" lon="6.32325">
        <ele>849.5</ele>
        <time>2021-09-18T11:48:05.909Z</time>
      </trkpt>
      <trkpt lat="46.8187" lon="6.32379">
        <ele>854.4</ele>
        <time>2021-09-18T11:49:54.961Z</time>
      </trkpt>
      <trkpt lat="46.81865" lon="6.32401">
        <ele>856.4</ele>
        <time>2021-09-18T11:50:42.213Z</time>
      </trkpt>
      <trkpt lat="46.81853" lon="6.32419">
        <ele>859.8</ele>
        <time>2021-09-18T11:51:38.883Z</time>
      </trkpt>
      <trkpt lat="46.81841" lon="6.32445">
        <ele>865.3</ele>
        <time>2021-09-18T11:52:49.605Z</time>
      </trkpt>
      <trkpt lat="46.81868" lon="6.32493">
        <ele>866.5</ele>
        <time>2021-09-18T11:53:38.597Z</time>
      </trkpt>
      <trkpt lat="46.81924" lon="6.32556">
        <ele>869.3</ele>
        <time>2021-09-18T11:55:13.371Z</time>
      </trkpt>
      <trkpt lat="46.82048" lon="6.32617">
        <ele>854</ele>
        <time>2021-09-18T11:55:40.281Z</time>
      </trkpt>
      <trkpt lat="46.82099" lon="6.32638">
        <ele>852.1</ele>
        <time>2021-09-18T11:55:53.307Z</time>
      </trkpt>
      <trkpt lat="46.8213" lon="6.32665">
        <ele>854.5</ele>
        <time>2021-09-18T11:56:53.755Z</time>
      </trkpt>
      <trkpt lat="46.8215" lon="6.3269">
        <ele>857.4</ele>
        <time>2021-09-18T11:57:58.675Z</time>
      </trkpt>
      <trkpt lat="46.82196" lon="6.32729">
        <ele>860.3</ele>
        <time>2021-09-18T11:59:20.553Z</time>
      </trkpt>
      <trkpt lat="46.82252" lon="6.32737">
        <ele>859.4</ele>
        <time>2021-09-18T11:59:37.765Z</time>
      </trkpt>
      <trkpt lat="46.82304" lon="6.32761">
        <ele>862.4</ele>
        <time>2021-09-18T12:01:01.998Z</time>
      </trkpt>
      <trkpt lat="46.82417" lon="6.32843">
        <ele>864.2</ele>
        <time>2021-09-18T12:03:05.991Z</time>
      </trkpt>
      <trkpt lat="46.825" lon="6.32902">
        <ele>864</ele>
        <time>2021-09-18T12:04:22.313Z</time>
      </trkpt>
      <trkpt lat="46.82561" lon="6.32943">
        <ele>866.6</ele>
        <time>2021-09-18T12:05:51.208Z</time>
      </trkpt>
      <trkpt lat="46.82615" lon="6.33002">
        <ele>870.1</ele>
        <time>2021-09-18T12:07:33.207Z</time>
      </trkpt>
      <trkpt lat="46.82664" lon="6.33058">
        <ele>870.2</ele>
        <time>2021-09-18T12:08:27.145Z</time>
      </trkpt>
      <trkpt lat="46.82687" lon="6.33078">
        <ele>867.8</ele>
        <time>2021-09-18T12:08:32.649Z</time>
      </trkpt>
      <trkpt lat="46.82731" lon="6.33136">
        <ele>868.9</ele>
        <time>2021-09-18T12:09:33.644Z</time>
      </trkpt>
      <trkpt lat="46.82767" lon="6.33178">
        <ele>869.4</ele>
        <time>2021-09-18T12:10:17.344Z</time>
      </trkpt>
      <trkpt lat="46.82774" lon="6.33219">
        <ele>871.7</ele>
        <time>2021-09-18T12:11:10.907Z</time>
      </trkpt>
      <trkpt lat="46.82766" lon="6.33259">
        <ele>875.6</ele>
        <time>2021-09-18T12:12:44.869Z</time>
      </trkpt>
      <trkpt lat="46.82755" lon="6.33298">
        <ele>879.2</ele>
        <time>2021-09-18T12:14:09.355Z</time>
      </trkpt>
      <trkpt lat="46.82726" lon="6.33323">
        <ele>883.8</ele>
        <time>2021-09-18T12:16:00.307Z</time>
      </trkpt>
      <trkpt lat="46.8274" lon="6.3336">
        <ele>884.8</ele>
        <time>2021-09-18T12:16:36.475Z</time>
      </trkpt>
      <trkpt lat="46.82754" lon="6.33399">
        <ele>885.1</ele>
        <time>2021-09-18T12:17:04.803Z</time>
      </trkpt>
      <trkpt lat="46.82757" lon="6.33416">
        <ele>885.5</ele>
        <time>2021-09-18T12:17:19.570Z</time>
      </trkpt>
      <trkpt lat="46.82758" lon="6.33453">
        <ele>890</ele>
        <time>2021-09-18T12:18:43.059Z</time>
      </trkpt>
      <trkpt lat="46.82762" lon="6.33485">
        <ele>893.1</ele>
        <time>2021-09-18T12:19:56.404Z</time>
      </trkpt>
      <trkpt lat="46.82764" lon="6.33493">
        <ele>893.7</ele>
        <time>2021-09-18T12:20:09.736Z</time>
      </trkpt>
      <trkpt lat="46.82774" lon="6.33506">
        <ele>893.2</ele>
        <time>2021-09-18T12:20:12.978Z</time>
      </trkpt>
      <trkpt lat="46.82785" lon="6.33511">
        <ele>891.7</ele>
        <time>2021-09-18T12:20:15.347Z</time>
      </trkpt>
      <trkpt lat="46.82836" lon="6.3355">
        <ele>887.3</ele>
        <time>2021-09-18T12:20:27.186Z</time>
      </trkpt>
      <trkpt lat="46.82855" lon="6.33583">
        <ele>889</ele>
        <time>2021-09-18T12:21:13.583Z</time>
      </trkpt>
      <trkpt lat="46.8288" lon="6.33627">
        <ele>891.3</ele>
        <time>2021-09-18T12:22:15.608Z</time>
      </trkpt>
      <trkpt lat="46.8289" lon="6.33627">
        <ele>887</ele>
        <time>2021-09-18T12:22:17.665Z</time>
      </trkpt>
      <trkpt lat="46.82896" lon="6.33637">
        <ele>886.3</ele>
        <time>2021-09-18T12:22:19.536Z</time>
      </trkpt>
      <trkpt lat="46.82919" lon="6.3366">
        <ele>879.1</ele>
        <time>2021-09-18T12:22:25.268Z</time>
      </trkpt>
      <trkpt lat="46.82962" lon="6.33696">
        <ele>877.8</ele>
        <time>2021-09-18T12:22:38.731Z</time>
      </trkpt>
      <trkpt lat="46.82995" lon="6.3372">
        <ele>872.2</ele>
        <time>2021-09-18T12:22:46.312Z</time>
      </trkpt>
      <trkpt lat="46.83045" lon="6.33768">
        <ele>864.4</ele>
        <time>2021-09-18T12:22:58.616Z</time>
      </trkpt>
      <trkpt lat="46.83075" lon="6.33795">
        <ele>860.2</ele>
        <time>2021-09-18T12:23:05.862Z</time>
      </trkpt>
      <trkpt lat="46.83106" lon="6.3382">
        <ele>857.7</ele>
        <time>2021-09-18T12:23:13.144Z</time>
      </trkpt>
      <trkpt lat="46.83123" lon="6.33837">
        <ele>856.8</ele>
        <time>2021-09-18T12:23:17.844Z</time>
      </trkpt>
      <trkpt lat="46.83172" lon="6.339">
        <ele>863.7</ele>
        <time>2021-09-18T12:25:51.413Z</time>
      </trkpt>
      <trkpt lat="46.83198" lon="6.33941">
        <ele>865.7</ele>
        <time>2021-09-18T12:26:49.421Z</time>
      </trkpt>
      <trkpt lat="46.83209" lon="6.33953">
        <ele>865.3</ele>
        <time>2021-09-18T12:26:53.035Z</time>
      </trkpt>
    </trkseg>
  </trk>
</gpx>